sensor_id;sensor_type;location;lat;lon;timestamp;P1;durP1;ratioP1;P2;durP2;ratioP2
28958;SDS011;16066;0.000;0.000;2023-01-10T00:00:51;13.07;;;7.47;;
28958;SDS011;16066;0.000;0.000;2023-01-10T00:03:17;13.97;;;8.10;;
28958;SDS011;16066;0.000;0.000;2023-01-10T00:05:43;13.53;;;7.10;;
28958;SDS011;16066;0.000;0.000;2023-01-10T00:08:09;14.43;;;7.80;;
28958;SDS011;16066;0.000;0.000;2023-01-10T00:10:39;15.23;;;7.10;;
28958;SDS011;16066;0.000;0.000;2023-01-10T00:13:05;10.83;;;6.87;;
28958;SDS011;16066;0.000;0.000;2023-01-10T00:15:50;12.00;;;6.90;;
28958;SDS011;16066;0.000;0.000;2023-01-10T00:18:16;10.10;;;7.03;;
28958;SDS011;16066;0.000;0.000;2023-01-10T00:20:42;10.93;;;7.93;;
28958;SDS011;16066;0.000;0.000;2023-01-10T00:23:11;11.40;;;6.67;;
28958;SDS011;16066;0.000;0.000;2023-01-10T00:25:37;9.17;;;6.43;;
28958;SDS011;16066;0.000;0.000;2023-01-10T00:28:03;12.10;;;6.57;;
28958;SDS011;16066;0.000;0.000;2023-01-10T00:30:36;12.50;;;6.80;;
28958;SDS011;16066;0.000;0.000;2023-01-10T00:33:03;10.73;;;7.33;;
28958;SDS011;16066;0.000;0.000;2023-01-10T00:35:29;10.60;;;7.13;;
28958;SDS011;16066;0.000;0.000;2023-01-10T00:37:54;11.27;;;7.97;;
28958;SDS011;16066;0.000;0.000;2023-01-10T00:40:25;12.73;;;7.67;;
28958;SDS011;16066;0.000;0.000;2023-01-10T00:42:50;10.50;;;7.33;;
28958;SDS011;16066;0.000;0.000;2023-01-10T00:45:35;11.17;;;6.70;;
28958;SDS011;16066;0.000;0.000;2023-01-10T00:48:01;9.57;;;6.13;;
28958;SDS011;16066;0.000;0.000;2023-01-10T00:50:26;11.53;;;7.07;;
28958;SDS011;16066;0.000;0.000;2023-01-10T00:52:52;12.63;;;6.93;;
28958;SDS011;16066;0.000;0.000;2023-01-10T00:55:17;13.23;;;8.07;;
28958;SDS011;16066;0.000;0.000;2023-01-10T00:57:43;11.30;;;7.53;;
28958;SDS011;16066;0.000;0.000;2023-01-10T01:00:08;12.87;;;7.40;;
28958;SDS011;16066;0.000;0.000;2023-01-10T01:02:36;8.40;;;6.30;;
28958;SDS011;16066;0.000;0.000;2023-01-10T01:05:02;11.80;;;8.10;;
28958;SDS011;16066;0.000;0.000;2023-01-10T01:07:28;10.90;;;6.90;;
28958;SDS011;16066;0.000;0.000;2023-01-10T01:09:53;9.03;;;7.00;;
28958;SDS011;16066;0.000;0.000;2023-01-10T01:12:37;10.27;;;6.57;;
28958;SDS011;16066;0.000;0.000;2023-01-10T01:15:03;11.13;;;6.87;;
28958;SDS011;16066;0.000;0.000;2023-01-10T01:17:29;10.93;;;6.80;;
28958;SDS011;16066;0.000;0.000;2023-01-10T01:19:54;10.20;;;6.90;;
28958;SDS011;16066;0.000;0.000;2023-01-10T01:22:20;9.40;;;6.77;;
28958;SDS011;16066;0.000;0.000;2023-01-10T01:24:45;10.57;;;6.90;;
28958;SDS011;16066;0.000;0.000;2023-01-10T01:27:11;10.07;;;6.67;;
28958;SDS011;16066;0.000;0.000;2023-01-10T01:29:36;10.90;;;7.30;;
28958;SDS011;16066;0.000;0.000;2023-01-10T01:32:02;9.53;;;7.00;;
28958;SDS011;16066;0.000;0.000;2023-01-10T01:34:27;9.27;;;6.57;;
28958;SDS011;16066;0.000;0.000;2023-01-10T01:36:53;10.80;;;6.50;;
28958;SDS011;16066;0.000;0.000;2023-01-10T01:39:20;9.23;;;7.10;;
28958;SDS011;16066;0.000;0.000;2023-01-10T01:41:46;10.50;;;7.13;;
28958;SDS011;16066;0.000;0.000;2023-01-10T01:44:21;8.40;;;6.70;;
28958;SDS011;16066;0.000;0.000;2023-01-10T01:46:48;10.60;;;6.87;;
28958;SDS011;16066;0.000;0.000;2023-01-10T01:49:33;9.23;;;6.60;;
28958;SDS011;16066;0.000;0.000;2023-01-10T01:52:04;10.13;;;6.40;;
28958;SDS011;16066;0.000;0.000;2023-01-10T01:54:34;8.40;;;6.27;;
28958;SDS011;16066;0.000;0.000;2023-01-10T01:57:01;10.17;;;6.70;;
28958;SDS011;16066;0.000;0.000;2023-01-10T01:59:32;10.73;;;7.43;;
28958;SDS011;16066;0.000;0.000;2023-01-10T02:02:06;8.90;;;6.37;;
28958;SDS011;16066;0.000;0.000;2023-01-10T02:04:48;10.30;;;7.47;;
28958;SDS011;16066;0.000;0.000;2023-01-10T02:07:18;8.50;;;6.23;;
28958;SDS011;16066;0.000;0.000;2023-01-10T02:09:46;8.00;;;6.20;;
28958;SDS011;16066;0.000;0.000;2023-01-10T02:12:15;7.60;;;5.57;;
28958;SDS011;16066;0.000;0.000;2023-01-10T02:14:41;9.67;;;6.40;;
28958;SDS011;16066;0.000;0.000;2023-01-10T02:17:09;9.53;;;6.60;;
28958;SDS011;16066;0.000;0.000;2023-01-10T02:28:29;10.97;;;7.57;;
28958;SDS011;16066;0.000;0.000;2023-01-10T02:31:18;9.20;;;6.43;;
28958;SDS011;16066;0.000;0.000;2023-01-10T02:39:29;8.70;;;6.70;;
28958;SDS011;16066;0.000;0.000;2023-01-10T02:42:05;10.33;;;7.50;;
28958;SDS011;16066;0.000;0.000;2023-01-10T02:44:34;9.80;;;6.77;;
28958;SDS011;16066;0.000;0.000;2023-01-10T02:47:03;10.20;;;6.33;;
28958;SDS011;16066;0.000;0.000;2023-01-10T02:49:39;13.33;;;7.77;;
28958;SDS011;16066;0.000;0.000;2023-01-10T02:52:06;8.93;;;6.70;;
28958;SDS011;16066;0.000;0.000;2023-01-10T02:54:32;10.17;;;7.00;;
28958;SDS011;16066;0.000;0.000;2023-01-10T03:02:43;9.10;;;6.60;;
28958;SDS011;16066;0.000;0.000;2023-01-10T03:05:39;9.53;;;7.57;;
28958;SDS011;16066;0.000;0.000;2023-01-10T03:10:56;9.90;;;7.17;;
28958;SDS011;16066;0.000;0.000;2023-01-10T03:16:08;13.50;;;7.83;;
28958;SDS011;16066;0.000;0.000;2023-01-10T03:18:40;10.77;;;7.10;;
28958;SDS011;16066;0.000;0.000;2023-01-10T03:21:10;12.00;;;6.87;;
28958;SDS011;16066;0.000;0.000;2023-01-10T03:23:37;10.83;;;7.17;;
28958;SDS011;16066;0.000;0.000;2023-01-10T03:26:04;9.13;;;6.67;;
28958;SDS011;16066;0.000;0.000;2023-01-10T03:28:34;11.20;;;7.20;;
28958;SDS011;16066;0.000;0.000;2023-01-10T03:31:05;10.30;;;7.07;;
28958;SDS011;16066;0.000;0.000;2023-01-10T03:33:45;9.00;;;6.90;;
28958;SDS011;16066;0.000;0.000;2023-01-10T03:36:33;11.57;;;7.30;;
28958;SDS011;16066;0.000;0.000;2023-01-10T03:41:47;10.53;;;7.20;;
28958;SDS011;16066;0.000;0.000;2023-01-10T03:49:52;9.03;;;6.47;;
28958;SDS011;16066;0.000;0.000;2023-01-10T03:52:20;8.80;;;6.23;;
28958;SDS011;16066;0.000;0.000;2023-01-10T03:54:46;9.50;;;6.40;;
28958;SDS011;16066;0.000;0.000;2023-01-10T03:57:16;10.27;;;6.70;;
28958;SDS011;16066;0.000;0.000;2023-01-10T03:59:43;11.67;;;7.70;;
28958;SDS011;16066;0.000;0.000;2023-01-10T04:02:10;8.97;;;6.57;;
28958;SDS011;16066;0.000;0.000;2023-01-10T04:04:36;10.63;;;6.57;;
28958;SDS011;16066;0.000;0.000;2023-01-10T04:07:01;8.30;;;5.93;;
28958;SDS011;16066;0.000;0.000;2023-01-10T04:09:27;9.77;;;6.53;;
28958;SDS011;16066;0.000;0.000;2023-01-10T04:11:52;9.77;;;6.43;;
28958;SDS011;16066;0.000;0.000;2023-01-10T04:14:18;11.83;;;6.67;;
28958;SDS011;16066;0.000;0.000;2023-01-10T04:16:43;10.53;;;7.03;;
28958;SDS011;16066;0.000;0.000;2023-01-10T04:19:09;11.20;;;7.10;;
28958;SDS011;16066;0.000;0.000;2023-01-10T04:21:34;11.03;;;6.77;;
28958;SDS011;16066;0.000;0.000;2023-01-10T04:24:00;10.13;;;6.80;;
28958;SDS011;16066;0.000;0.000;2023-01-10T04:26:25;12.00;;;7.20;;
28958;SDS011;16066;0.000;0.000;2023-01-10T04:28:51;8.30;;;6.37;;
28958;SDS011;16066;0.000;0.000;2023-01-10T04:31:16;9.50;;;6.97;;
28958;SDS011;16066;0.000;0.000;2023-01-10T04:33:42;9.20;;;6.40;;
28958;SDS011;16066;0.000;0.000;2023-01-10T04:36:07;8.60;;;6.57;;
28958;SDS011;16066;0.000;0.000;2023-01-10T04:38:33;9.40;;;6.73;;
28958;SDS011;16066;0.000;0.000;2023-01-10T04:40:58;9.20;;;6.03;;
28958;SDS011;16066;0.000;0.000;2023-01-10T04:43:24;10.43;;;6.40;;
28958;SDS011;16066;0.000;0.000;2023-01-10T04:45:50;9.17;;;6.30;;
28958;SDS011;16066;0.000;0.000;2023-01-10T04:48:15;10.70;;;7.10;;
28958;SDS011;16066;0.000;0.000;2023-01-10T04:50:41;9.40;;;6.90;;
28958;SDS011;16066;0.000;0.000;2023-01-10T04:53:07;9.60;;;6.70;;
28958;SDS011;16066;0.000;0.000;2023-01-10T04:55:33;8.67;;;6.00;;
28958;SDS011;16066;0.000;0.000;2023-01-10T04:57:58;10.53;;;7.40;;
28958;SDS011;16066;0.000;0.000;2023-01-10T05:00:26;7.97;;;5.50;;
28958;SDS011;16066;0.000;0.000;2023-01-10T05:02:55;9.80;;;6.50;;
28958;SDS011;16066;0.000;0.000;2023-01-10T05:05:21;9.33;;;6.97;;
28958;SDS011;16066;0.000;0.000;2023-01-10T05:07:47;10.67;;;6.90;;
28958;SDS011;16066;0.000;0.000;2023-01-10T05:10:12;9.97;;;6.80;;
28958;SDS011;16066;0.000;0.000;2023-01-10T05:12:38;10.63;;;7.57;;
28958;SDS011;16066;0.000;0.000;2023-01-10T05:15:04;10.23;;;6.70;;
28958;SDS011;16066;0.000;0.000;2023-01-10T05:17:30;11.73;;;7.60;;
28958;SDS011;16066;0.000;0.000;2023-01-10T05:19:55;8.57;;;6.20;;
28958;SDS011;16066;0.000;0.000;2023-01-10T05:22:21;9.80;;;6.67;;
28958;SDS011;16066;0.000;0.000;2023-01-10T05:24:46;9.40;;;6.50;;
28958;SDS011;16066;0.000;0.000;2023-01-10T05:27:12;9.80;;;6.93;;
28958;SDS011;16066;0.000;0.000;2023-01-10T05:29:37;9.80;;;6.27;;
28958;SDS011;16066;0.000;0.000;2023-01-10T05:32:03;8.47;;;6.07;;
28958;SDS011;16066;0.000;0.000;2023-01-10T05:34:28;10.53;;;6.83;;
28958;SDS011;16066;0.000;0.000;2023-01-10T05:36:54;8.93;;;6.63;;
28958;SDS011;16066;0.000;0.000;2023-01-10T05:39:20;9.03;;;6.50;;
28958;SDS011;16066;0.000;0.000;2023-01-10T05:41:45;9.17;;;7.27;;
28958;SDS011;16066;0.000;0.000;2023-01-10T05:44:11;10.23;;;7.10;;
28958;SDS011;16066;0.000;0.000;2023-01-10T05:46:37;8.40;;;6.70;;
28958;SDS011;16066;0.000;0.000;2023-01-10T05:49:02;8.73;;;6.70;;
28958;SDS011;16066;0.000;0.000;2023-01-10T05:51:28;8.97;;;6.70;;
28958;SDS011;16066;0.000;0.000;2023-01-10T05:53:53;9.20;;;6.50;;
28958;SDS011;16066;0.000;0.000;2023-01-10T05:56:18;10.40;;;6.80;;
28958;SDS011;16066;0.000;0.000;2023-01-10T05:58:44;10.27;;;7.27;;
28958;SDS011;16066;0.000;0.000;2023-01-10T06:01:10;11.83;;;7.60;;
28958;SDS011;16066;0.000;0.000;2023-01-10T06:03:36;8.90;;;6.80;;
28958;SDS011;16066;0.000;0.000;2023-01-10T06:06:01;9.57;;;6.80;;
28958;SDS011;16066;0.000;0.000;2023-01-10T06:08:27;9.50;;;6.93;;
28958;SDS011;16066;0.000;0.000;2023-01-10T06:10:54;8.70;;;6.33;;
28958;SDS011;16066;0.000;0.000;2023-01-10T06:13:20;8.90;;;6.50;;
28958;SDS011;16066;0.000;0.000;2023-01-10T06:15:46;10.60;;;6.50;;
28958;SDS011;16066;0.000;0.000;2023-01-10T06:18:11;9.20;;;6.23;;
28958;SDS011;16066;0.000;0.000;2023-01-10T06:20:37;10.30;;;6.87;;
28958;SDS011;16066;0.000;0.000;2023-01-10T06:23:03;7.33;;;5.53;;
28958;SDS011;16066;0.000;0.000;2023-01-10T06:25:32;9.57;;;6.07;;
28958;SDS011;16066;0.000;0.000;2023-01-10T06:28:01;10.07;;;6.80;;
28958;SDS011;16066;0.000;0.000;2023-01-10T06:30:26;9.10;;;6.53;;
28958;SDS011;16066;0.000;0.000;2023-01-10T06:32:52;9.30;;;5.90;;
28958;SDS011;16066;0.000;0.000;2023-01-10T06:35:17;8.17;;;5.80;;
28958;SDS011;16066;0.000;0.000;2023-01-10T06:37:43;10.20;;;7.10;;
28958;SDS011;16066;0.000;0.000;2023-01-10T06:40:09;9.73;;;5.80;;
28958;SDS011;16066;0.000;0.000;2023-01-10T06:42:35;10.40;;;6.43;;
28958;SDS011;16066;0.000;0.000;2023-01-10T06:45:01;8.20;;;6.00;;
28958;SDS011;16066;0.000;0.000;2023-01-10T06:47:27;9.77;;;6.13;;
28958;SDS011;16066;0.000;0.000;2023-01-10T06:49:52;7.67;;;5.90;;
28958;SDS011;16066;0.000;0.000;2023-01-10T06:52:18;11.23;;;5.70;;
28958;SDS011;16066;0.000;0.000;2023-01-10T06:54:44;10.23;;;6.43;;
28958;SDS011;16066;0.000;0.000;2023-01-10T06:57:09;8.30;;;5.90;;
28958;SDS011;16066;0.000;0.000;2023-01-10T06:59:34;8.37;;;6.10;;
28958;SDS011;16066;0.000;0.000;2023-01-10T07:02:00;11.10;;;6.70;;
28958;SDS011;16066;0.000;0.000;2023-01-10T07:04:26;7.60;;;5.50;;
28958;SDS011;16066;0.000;0.000;2023-01-10T07:06:51;10.47;;;5.70;;
28958;SDS011;16066;0.000;0.000;2023-01-10T07:09:18;8.20;;;5.67;;
28958;SDS011;16066;0.000;0.000;2023-01-10T07:11:43;10.93;;;6.60;;
28958;SDS011;16066;0.000;0.000;2023-01-10T07:14:09;8.30;;;5.70;;
28958;SDS011;16066;0.000;0.000;2023-01-10T07:16:35;10.17;;;5.80;;
28958;SDS011;16066;0.000;0.000;2023-01-10T07:19:00;9.37;;;6.03;;
28958;SDS011;16066;0.000;0.000;2023-01-10T07:21:26;11.40;;;6.57;;
28958;SDS011;16066;0.000;0.000;2023-01-10T07:23:52;9.53;;;5.77;;
28958;SDS011;16066;0.000;0.000;2023-01-10T07:26:18;10.07;;;6.20;;
28958;SDS011;16066;0.000;0.000;2023-01-10T07:28:44;9.10;;;5.30;;
28958;SDS011;16066;0.000;0.000;2023-01-10T07:31:14;9.23;;;5.60;;
28958;SDS011;16066;0.000;0.000;2023-01-10T07:33:40;9.53;;;5.43;;
28958;SDS011;16066;0.000;0.000;2023-01-10T07:36:06;12.80;;;5.77;;
28958;SDS011;16066;0.000;0.000;2023-01-10T07:38:32;9.97;;;5.63;;
28958;SDS011;16066;0.000;0.000;2023-01-10T07:40:59;8.37;;;5.53;;
28958;SDS011;16066;0.000;0.000;2023-01-10T07:43:26;9.50;;;5.93;;
28958;SDS011;16066;0.000;0.000;2023-01-10T07:45:52;9.10;;;5.93;;
28958;SDS011;16066;0.000;0.000;2023-01-10T07:48:17;10.43;;;6.20;;
28958;SDS011;16066;0.000;0.000;2023-01-10T07:50:43;9.70;;;5.60;;
28958;SDS011;16066;0.000;0.000;2023-01-10T07:53:08;8.50;;;5.50;;
28958;SDS011;16066;0.000;0.000;2023-01-10T07:55:35;9.07;;;5.40;;
28958;SDS011;16066;0.000;0.000;2023-01-10T07:58:03;11.03;;;6.30;;
28958;SDS011;16066;0.000;0.000;2023-01-10T08:00:31;12.80;;;5.83;;
28958;SDS011;16066;0.000;0.000;2023-01-10T08:02:56;13.00;;;6.20;;
28958;SDS011;16066;0.000;0.000;2023-01-10T08:05:22;8.07;;;5.17;;
28958;SDS011;16066;0.000;0.000;2023-01-10T08:07:47;8.50;;;5.47;;
28958;SDS011;16066;0.000;0.000;2023-01-10T08:10:13;9.50;;;5.90;;
28958;SDS011;16066;0.000;0.000;2023-01-10T08:12:39;9.87;;;5.70;;
28958;SDS011;16066;0.000;0.000;2023-01-10T08:15:04;9.90;;;5.57;;
28958;SDS011;16066;0.000;0.000;2023-01-10T08:17:34;10.83;;;5.90;;
28958;SDS011;16066;0.000;0.000;2023-01-10T08:20:00;8.87;;;6.07;;
28958;SDS011;16066;0.000;0.000;2023-01-10T08:22:26;8.60;;;4.77;;
28958;SDS011;16066;0.000;0.000;2023-01-10T08:24:51;22.80;;;6.43;;
28958;SDS011;16066;0.000;0.000;2023-01-10T08:27:17;10.90;;;6.27;;
28958;SDS011;16066;0.000;0.000;2023-01-10T08:29:43;9.20;;;5.60;;
28958;SDS011;16066;0.000;0.000;2023-01-10T08:32:08;9.20;;;5.83;;
28958;SDS011;16066;0.000;0.000;2023-01-10T08:34:34;9.60;;;5.60;;
28958;SDS011;16066;0.000;0.000;2023-01-10T08:36:59;10.20;;;5.93;;
28958;SDS011;16066;0.000;0.000;2023-01-10T08:39:27;11.63;;;5.80;;
28958;SDS011;16066;0.000;0.000;2023-01-10T08:41:54;8.33;;;5.30;;
28958;SDS011;16066;0.000;0.000;2023-01-10T08:44:20;10.90;;;6.20;;
28958;SDS011;16066;0.000;0.000;2023-01-10T08:46:45;10.77;;;5.03;;
28958;SDS011;16066;0.000;0.000;2023-01-10T08:49:11;12.20;;;6.10;;
28958;SDS011;16066;0.000;0.000;2023-01-10T08:51:36;14.20;;;6.10;;
28958;SDS011;16066;0.000;0.000;2023-01-10T08:54:02;14.47;;;6.13;;
28958;SDS011;16066;0.000;0.000;2023-01-10T08:56:27;17.60;;;6.67;;
28958;SDS011;16066;0.000;0.000;2023-01-10T08:58:53;11.50;;;6.40;;
28958;SDS011;16066;0.000;0.000;2023-01-10T09:01:18;8.87;;;5.70;;
28958;SDS011;16066;0.000;0.000;2023-01-10T09:03:44;11.60;;;6.13;;
28958;SDS011;16066;0.000;0.000;2023-01-10T09:06:10;14.23;;;6.07;;
28958;SDS011;16066;0.000;0.000;2023-01-10T09:08:35;9.20;;;5.60;;
28958;SDS011;16066;0.000;0.000;2023-01-10T09:11:01;14.33;;;5.63;;
28958;SDS011;16066;0.000;0.000;2023-01-10T09:13:27;10.53;;;5.63;;
28958;SDS011;16066;0.000;0.000;2023-01-10T09:15:53;10.03;;;5.60;;
28958;SDS011;16066;0.000;0.000;2023-01-10T09:18:19;15.70;;;6.37;;
28958;SDS011;16066;0.000;0.000;2023-01-10T09:20:45;13.60;;;5.90;;
28958;SDS011;16066;0.000;0.000;2023-01-10T09:23:14;11.07;;;5.80;;
28958;SDS011;16066;0.000;0.000;2023-01-10T09:25:43;10.53;;;5.00;;
28958;SDS011;16066;0.000;0.000;2023-01-10T09:28:09;11.50;;;4.70;;
28958;SDS011;16066;0.000;0.000;2023-01-10T09:30:35;8.70;;;5.50;;
28958;SDS011;16066;0.000;0.000;2023-01-10T09:33:01;11.50;;;5.43;;
28958;SDS011;16066;0.000;0.000;2023-01-10T09:35:28;9.43;;;5.00;;
28958;SDS011;16066;0.000;0.000;2023-01-10T09:37:55;12.47;;;5.83;;
28958;SDS011;16066;0.000;0.000;2023-01-10T09:40:25;11.07;;;5.70;;
28958;SDS011;16066;0.000;0.000;2023-01-10T09:45:51;12.20;;;5.83;;
28958;SDS011;16066;0.000;0.000;2023-01-10T09:48:26;12.73;;;6.20;;
28958;SDS011;16066;0.000;0.000;2023-01-10T09:51:42;10.57;;;5.03;;
28958;SDS011;16066;0.000;0.000;2023-01-10T09:54:02;15.90;;;5.00;;
28958;SDS011;16066;0.000;0.000;2023-01-10T09:56:39;12.73;;;5.33;;
28958;SDS011;16066;0.000;0.000;2023-01-10T09:59:08;11.83;;;4.40;;
28958;SDS011;16066;0.000;0.000;2023-01-10T10:01:41;12.97;;;5.10;;
28958;SDS011;16066;0.000;0.000;2023-01-10T10:04:24;9.27;;;4.40;;
28958;SDS011;16066;0.000;0.000;2023-01-10T10:06:54;10.93;;;4.73;;
28958;SDS011;16066;0.000;0.000;2023-01-10T10:09:30;13.57;;;4.80;;
28958;SDS011;16066;0.000;0.000;2023-01-10T10:17:40;14.07;;;4.47;;
28958;SDS011;16066;0.000;0.000;2023-01-10T10:22:52;15.23;;;4.40;;
28958;SDS011;16066;0.000;0.000;2023-01-10T10:28:44;10.50;;;4.53;;
28958;SDS011;16066;0.000;0.000;2023-01-10T10:31:31;10.87;;;4.57;;
28958;SDS011;16066;0.000;0.000;2023-01-10T10:34:39;9.30;;;4.13;;
28958;SDS011;16066;0.000;0.000;2023-01-10T10:37:16;11.33;;;4.40;;
28958;SDS011;16066;0.000;0.000;2023-01-10T10:39:58;13.67;;;5.13;;
28958;SDS011;16066;0.000;0.000;2023-01-10T10:42:30;12.37;;;4.63;;
28958;SDS011;16066;0.000;0.000;2023-01-10T10:47:30;12.27;;;4.27;;
28958;SDS011;16066;0.000;0.000;2023-01-10T10:52:38;8.53;;;4.47;;
28958;SDS011;16066;0.000;0.000;2023-01-10T10:55:05;9.83;;;4.13;;
28958;SDS011;16066;0.000;0.000;2023-01-10T10:57:32;9.40;;;4.20;;
28958;SDS011;16066;0.000;0.000;2023-01-10T11:00:03;11.27;;;4.17;;
28958;SDS011;16066;0.000;0.000;2023-01-10T11:02:32;9.33;;;4.23;;
28958;SDS011;16066;0.000;0.000;2023-01-10T11:05:05;9.27;;;4.23;;
28958;SDS011;16066;0.000;0.000;2023-01-10T11:07:38;9.80;;;4.13;;
28958;SDS011;16066;0.000;0.000;2023-01-10T11:10:08;14.07;;;4.37;;
28958;SDS011;16066;0.000;0.000;2023-01-10T11:12:38;8.60;;;4.43;;
28958;SDS011;16066;0.000;0.000;2023-01-10T11:15:11;6.40;;;3.90;;
28958;SDS011;16066;0.000;0.000;2023-01-10T11:27:25;9.07;;;5.17;;
28958;SDS011;16066;0.000;0.000;2023-01-10T11:30:07;7.37;;;4.27;;
28958;SDS011;16066;0.000;0.000;2023-01-10T11:32:34;9.83;;;4.10;;
28958;SDS011;16066;0.000;0.000;2023-01-10T11:35:06;6.20;;;3.80;;
28958;SDS011;16066;0.000;0.000;2023-01-10T11:37:41;9.43;;;4.00;;
28958;SDS011;16066;0.000;0.000;2023-01-10T11:40:18;6.77;;;3.80;;
28958;SDS011;16066;0.000;0.000;2023-01-10T11:42:48;8.37;;;4.10;;
28958;SDS011;16066;0.000;0.000;2023-01-10T11:50:19;10.40;;;5.23;;
28958;SDS011;16066;0.000;0.000;2023-01-10T11:52:50;10.83;;;5.80;;
28958;SDS011;16066;0.000;0.000;2023-01-10T11:55:26;9.53;;;6.00;;
28958;SDS011;16066;0.000;0.000;2023-01-10T11:58:09;21.97;;;12.33;;
28958;SDS011;16066;0.000;0.000;2023-01-10T12:03:12;24.03;;;14.30;;
28958;SDS011;16066;0.000;0.000;2023-01-10T12:05:51;24.77;;;13.10;;
28958;SDS011;16066;0.000;0.000;2023-01-10T12:08:24;19.83;;;13.50;;
28958;SDS011;16066;0.000;0.000;2023-01-10T12:11:03;20.47;;;13.80;;
28958;SDS011;16066;0.000;0.000;2023-01-10T12:13:51;19.50;;;12.73;;
28958;SDS011;16066;0.000;0.000;2023-01-10T12:16:21;21.40;;;13.00;;
28958;SDS011;16066;0.000;0.000;2023-01-10T12:18:47;21.30;;;12.37;;
28958;SDS011;16066;0.000;0.000;2023-01-10T12:21:15;20.00;;;12.30;;
28958;SDS011;16066;0.000;0.000;2023-01-10T12:23:45;16.40;;;11.73;;
28958;SDS011;16066;0.000;0.000;2023-01-10T12:26:13;16.40;;;12.50;;
28958;SDS011;16066;0.000;0.000;2023-01-10T12:28:41;16.47;;;11.13;;
28958;SDS011;16066;0.000;0.000;2023-01-10T12:31:13;21.73;;;13.30;;
28958;SDS011;16066;0.000;0.000;2023-01-10T12:33:41;22.40;;;12.17;;
28958;SDS011;16066;0.000;0.000;2023-01-10T12:36:31;24.20;;;13.80;;
28958;SDS011;16066;0.000;0.000;2023-01-10T12:39:13;17.67;;;12.07;;
28958;SDS011;16066;0.000;0.000;2023-01-10T12:44:36;15.43;;;10.73;;
28958;SDS011;16066;0.000;0.000;2023-01-10T12:52:23;16.20;;;11.13;;
28958;SDS011;16066;0.000;0.000;2023-01-10T12:54:58;20.83;;;10.87;;
28958;SDS011;16066;0.000;0.000;2023-01-10T12:57:31;16.37;;;10.77;;
28958;SDS011;16066;0.000;0.000;2023-01-10T13:00:03;15.60;;;11.03;;
28958;SDS011;16066;0.000;0.000;2023-01-10T13:02:41;13.37;;;10.00;;
28958;SDS011;16066;0.000;0.000;2023-01-10T13:05:17;17.10;;;9.87;;
28958;SDS011;16066;0.000;0.000;2023-01-10T13:07:44;17.03;;;10.30;;
28958;SDS011;16066;0.000;0.000;2023-01-10T13:10:13;14.23;;;9.97;;
28958;SDS011;16066;0.000;0.000;2023-01-10T13:12:42;22.20;;;11.10;;
28958;SDS011;16066;0.000;0.000;2023-01-10T13:15:31;20.60;;;14.17;;
28958;SDS011;16066;0.000;0.000;2023-01-10T13:18:12;21.53;;;13.03;;
28958;SDS011;16066;0.000;0.000;2023-01-10T13:20:46;21.20;;;13.00;;
28958;SDS011;16066;0.000;0.000;2023-01-10T13:23:22;21.13;;;13.80;;
28958;SDS011;16066;0.000;0.000;2023-01-10T13:26:04;22.90;;;14.20;;
28958;SDS011;16066;0.000;0.000;2023-01-10T13:28:33;21.13;;;13.17;;
28958;SDS011;16066;0.000;0.000;2023-01-10T13:31:05;16.73;;;12.63;;
28958;SDS011;16066;0.000;0.000;2023-01-10T13:36:11;18.83;;;12.07;;
28958;SDS011;16066;0.000;0.000;2023-01-10T13:38:47;21.00;;;11.77;;
28958;SDS011;16066;0.000;0.000;2023-01-10T13:41:16;16.53;;;11.23;;
28958;SDS011;16066;0.000;0.000;2023-01-10T13:44:05;19.23;;;12.70;;
28958;SDS011;16066;0.000;0.000;2023-01-10T13:46:39;19.33;;;11.90;;
28958;SDS011;16066;0.000;0.000;2023-01-10T13:51:36;18.93;;;10.63;;
28958;SDS011;16066;0.000;0.000;2023-01-10T13:56:41;18.57;;;10.90;;
28958;SDS011;16066;0.000;0.000;2023-01-10T14:02:43;14.73;;;9.77;;
28958;SDS011;16066;0.000;0.000;2023-01-10T14:05:06;16.73;;;10.87;;
28958;SDS011;16066;0.000;0.000;2023-01-10T14:07:43;18.43;;;10.00;;
28958;SDS011;16066;0.000;0.000;2023-01-10T14:10:23;18.57;;;11.60;;
28958;SDS011;16066;0.000;0.000;2023-01-10T14:12:52;16.20;;;10.60;;
28958;SDS011;16066;0.000;0.000;2023-01-10T14:15:39;14.60;;;9.80;;
28958;SDS011;16066;0.000;0.000;2023-01-10T14:18:07;18.47;;;9.60;;
28958;SDS011;16066;0.000;0.000;2023-01-10T14:20:59;18.30;;;9.17;;
28958;SDS011;16066;0.000;0.000;2023-01-10T14:23:31;12.60;;;9.20;;
28958;SDS011;16066;0.000;0.000;2023-01-10T14:26:05;16.70;;;9.67;;
28958;SDS011;16066;0.000;0.000;2023-01-10T14:28:38;16.47;;;9.60;;
28958;SDS011;16066;0.000;0.000;2023-01-10T14:33:33;17.13;;;10.70;;
28958;SDS011;16066;0.000;0.000;2023-01-10T14:36:01;17.20;;;10.20;;
28958;SDS011;16066;0.000;0.000;2023-01-10T14:38:32;17.57;;;10.87;;
28958;SDS011;16066;0.000;0.000;2023-01-10T14:41:00;11.93;;;7.77;;
28958;SDS011;16066;0.000;0.000;2023-01-10T14:43:52;13.17;;;8.90;;
28958;SDS011;16066;0.000;0.000;2023-01-10T14:46:45;12.37;;;8.20;;
28958;SDS011;16066;0.000;0.000;2023-01-10T14:51:51;14.07;;;9.17;;
28958;SDS011;16066;0.000;0.000;2023-01-10T14:54:20;14.83;;;9.50;;
28958;SDS011;16066;0.000;0.000;2023-01-10T14:56:49;11.50;;;8.73;;
28958;SDS011;16066;0.000;0.000;2023-01-10T15:01:49;11.60;;;8.63;;
28958;SDS011;16066;0.000;0.000;2023-01-10T15:04:18;12.87;;;7.80;;
28958;SDS011;16066;0.000;0.000;2023-01-10T15:06:49;13.80;;;8.07;;
28958;SDS011;16066;0.000;0.000;2023-01-10T15:09:19;12.83;;;7.97;;
28958;SDS011;16066;0.000;0.000;2023-01-10T15:11:46;11.50;;;7.57;;
28958;SDS011;16066;0.000;0.000;2023-01-10T15:14:13;11.90;;;8.37;;
28958;SDS011;16066;0.000;0.000;2023-01-10T15:16:44;10.07;;;7.67;;
28958;SDS011;16066;0.000;0.000;2023-01-10T15:19:12;12.30;;;8.10;;
28958;SDS011;16066;0.000;0.000;2023-01-10T15:21:42;12.07;;;7.30;;
28958;SDS011;16066;0.000;0.000;2023-01-10T15:24:55;12.13;;;7.90;;
28958;SDS011;16066;0.000;0.000;2023-01-10T15:27:03;11.93;;;7.20;;
28958;SDS011;16066;0.000;0.000;2023-01-10T15:29:32;15.53;;;8.23;;
28958;SDS011;16066;0.000;0.000;2023-01-10T15:32:07;11.13;;;7.30;;
28958;SDS011;16066;0.000;0.000;2023-01-10T15:34:46;9.23;;;6.80;;
28958;SDS011;16066;0.000;0.000;2023-01-10T15:37:16;8.30;;;6.60;;
28958;SDS011;16066;0.000;0.000;2023-01-10T15:39:46;10.30;;;7.10;;
28958;SDS011;16066;0.000;0.000;2023-01-10T15:42:12;11.10;;;7.23;;
28958;SDS011;16066;0.000;0.000;2023-01-10T15:44:39;8.97;;;6.90;;
28958;SDS011;16066;0.000;0.000;2023-01-10T15:47:30;11.47;;;7.27;;
28958;SDS011;16066;0.000;0.000;2023-01-10T15:50:21;10.87;;;7.83;;
28958;SDS011;16066;0.000;0.000;2023-01-10T15:52:55;10.80;;;7.63;;
28958;SDS011;16066;0.000;0.000;2023-01-10T15:58:04;17.47;;;7.83;;
28958;SDS011;16066;0.000;0.000;2023-01-10T16:00:49;11.33;;;7.70;;
28958;SDS011;16066;0.000;0.000;2023-01-10T16:03:50;9.47;;;7.30;;
28958;SDS011;16066;0.000;0.000;2023-01-10T16:06:16;14.77;;;7.43;;
28958;SDS011;16066;0.000;0.000;2023-01-10T16:08:46;11.40;;;7.30;;
28958;SDS011;16066;0.000;0.000;2023-01-10T16:17:57;14.53;;;8.00;;
28958;SDS011;16066;0.000;0.000;2023-01-10T16:20:28;10.60;;;7.07;;
28958;SDS011;16066;0.000;0.000;2023-01-10T16:23:05;10.03;;;6.57;;
28958;SDS011;16066;0.000;0.000;2023-01-10T16:25:37;9.10;;;7.00;;
28958;SDS011;16066;0.000;0.000;2023-01-10T16:28:09;11.77;;;7.00;;
28958;SDS011;16066;0.000;0.000;2023-01-10T16:30:36;16.30;;;7.47;;
28958;SDS011;16066;0.000;0.000;2023-01-10T16:33:10;12.40;;;7.20;;
28958;SDS011;16066;0.000;0.000;2023-01-10T16:35:40;10.80;;;7.17;;
28958;SDS011;16066;0.000;0.000;2023-01-10T16:38:09;10.70;;;6.30;;
28958;SDS011;16066;0.000;0.000;2023-01-10T16:40:37;8.77;;;6.23;;
28958;SDS011;16066;0.000;0.000;2023-01-10T16:43:08;9.50;;;6.27;;
28958;SDS011;16066;0.000;0.000;2023-01-10T16:45:49;11.33;;;6.83;;
28958;SDS011;16066;0.000;0.000;2023-01-10T16:48:17;12.80;;;6.23;;
28958;SDS011;16066;0.000;0.000;2023-01-10T16:50:44;11.13;;;6.20;;
28958;SDS011;16066;0.000;0.000;2023-01-10T16:53:11;9.87;;;6.10;;